createdAt,value
2017-09-29T00:00:40.094Z,46.21
2017-09-29T00:03:07.318Z,46.21
2017-09-29T00:05:34.624Z,46.37
2017-09-29T00:08:02.409Z,46.27
2017-09-29T00:10:31.512Z,46.25
2017-09-29T00:12:58.858Z,46.28
2017-09-29T00:15:26.171Z,46.35
2017-09-29T00:17:53.393Z,46.27
2017-09-29T00:20:20.646Z,46.28
2017-09-29T00:22:48.004Z,46.41
2017-09-29T00:25:15.210Z,46.28
2017-09-29T00:27:42.404Z,46.27
2017-09-29T00:30:09.667Z,46.34
2017-09-29T00:32:36.937Z,46.31
2017-09-29T00:35:04.456Z,46.30
2017-09-29T00:40:05.509Z,46.42
2017-09-29T00:42:34.787Z,46.39
2017-09-29T00:45:03.877Z,46.43
2017-09-29T00:47:31.825Z,46.42
2017-09-29T00:49:59.067Z,46.46
2017-09-29T00:52:26.353Z,46.47
2017-09-29T00:54:53.599Z,46.49
2017-09-29T00:57:20.861Z,46.57
2017-09-29T00:59:48.289Z,46.48
2017-09-29T01:02:15.525Z,46.49
2017-09-29T01:04:44.032Z,46.36
2017-09-29T01:07:11.405Z,46.32
2017-09-29T01:09:38.710Z,46.54
2017-09-29T01:12:06.040Z,46.47
2017-09-29T01:14:33.262Z,46.72
2017-09-29T01:17:00.539Z,46.83
2017-09-29T01:19:27.831Z,46.73
2017-09-29T01:21:55.128Z,46.83
2017-09-29T01:24:24.481Z,46.98
2017-09-29T01:26:57.238Z,47.20
2017-09-29T01:29:24.461Z,47.34
2017-09-29T01:31:51.632Z,47.44
2017-09-29T01:34:18.892Z,47.50
2017-09-29T01:36:49.187Z,47.61
2017-09-29T01:39:17.425Z,47.77
2017-09-29T01:41:47.246Z,47.70
2017-09-29T01:44:16.165Z,47.80
2017-09-29T01:46:43.598Z,47.92
2017-09-29T01:49:10.807Z,47.95
2017-09-29T01:51:38.090Z,47.94
2017-09-29T01:54:05.334Z,47.98
2017-09-29T01:56:32.507Z,47.94
2017-09-29T01:58:59.782Z,47.92
2017-09-29T02:01:27.022Z,47.87
2017-09-29T02:03:54.929Z,47.91
2017-09-29T02:06:22.310Z,47.84
2017-09-29T02:08:49.635Z,47.93
2017-09-29T02:11:16.844Z,47.83
2017-09-29T02:13:43.994Z,47.80
2017-09-29T02:16:11.306Z,47.83
2017-09-29T02:18:38.540Z,47.77
2017-09-29T02:21:05.712Z,47.68
2017-09-29T02:23:32.964Z,47.84
2017-09-29T02:26:00.167Z,47.75
2017-09-29T02:28:27.351Z,47.69
2017-09-29T02:30:54.694Z,47.75
2017-09-29T02:33:23.104Z,47.66
2017-09-29T02:35:51.421Z,47.60
2017-09-29T02:38:28.552Z,47.62
2017-09-29T02:40:56.723Z,47.63
2017-09-29T02:43:25.681Z,47.56
2017-09-29T02:45:54.574Z,47.39
2017-09-29T02:48:22.003Z,47.34
2017-09-29T02:50:50.775Z,47.33
2017-09-29T02:53:24.728Z,47.27
2017-09-29T02:55:51.973Z,47.29
2017-09-29T02:58:19.208Z,47.20
2017-09-29T03:00:46.466Z,47.17
2017-09-29T03:03:13.670Z,47.16
2017-09-29T03:05:41.114Z,47.03
2017-09-29T03:08:08.427Z,47.11
2017-09-29T03:10:35.644Z,46.97
2017-09-29T03:13:03.280Z,47.06
2017-09-29T03:15:30.571Z,47.05
2017-09-29T03:17:59.595Z,46.99
2017-09-29T03:20:29.281Z,46.82
2017-09-29T03:22:57.482Z,46.83
2017-09-29T03:25:25.999Z,46.76
2017-09-29T03:27:54.605Z,46.55
2017-09-29T03:30:22.209Z,46.46
2017-09-29T03:32:49.512Z,46.37
2017-09-29T03:35:16.798Z,46.27
2017-09-29T03:37:47.620Z,46.14
2017-09-29T03:40:15.063Z,46.08
2017-09-29T03:42:42.402Z,46.06
2017-09-29T03:45:09.681Z,46.04
2017-09-29T03:47:36.942Z,45.91
2017-09-29T03:50:04.238Z,45.86
2017-09-29T03:55:04.134Z,45.60
2017-09-29T03:57:31.555Z,45.50
2017-09-29T03:59:58.785Z,45.17
2017-09-29T04:02:26.225Z,45.29
2017-09-29T04:04:53.766Z,45.26
2017-09-29T04:07:21.061Z,45.16
2017-09-29T04:09:48.250Z,44.97
2017-09-29T04:12:15.460Z,44.89
2017-09-29T04:14:42.839Z,44.79
2017-09-29T04:17:09.994Z,44.71
2017-09-29T04:19:37.348Z,44.61
2017-09-29T04:22:04.624Z,44.64
2017-09-29T04:24:31.860Z,44.53
2017-09-29T04:26:59.107Z,44.29
2017-09-29T04:29:26.337Z,44.38
2017-09-29T04:31:53.651Z,44.25
2017-09-29T04:34:20.888Z,44.36
2017-09-29T04:36:49.115Z,44.31
2017-09-29T04:39:16.439Z,44.04
2017-09-29T04:41:43.731Z,44.36
2017-09-29T04:44:11.406Z,45.84
2017-09-29T04:46:39.212Z,46.33
2017-09-29T04:49:06.698Z,46.72
2017-09-29T04:51:33.964Z,46.06
2017-09-29T04:54:01.364Z,46.18
2017-09-29T04:56:28.615Z,45.55
2017-09-29T04:58:55.874Z,45.48
2017-09-29T05:01:23.284Z,45.45
2017-09-29T05:03:51.570Z,45.82
2017-09-29T05:06:20.536Z,44.57
2017-09-29T05:08:47.748Z,44.41
2017-09-29T05:11:15.152Z,46.05
2017-09-29T05:13:42.446Z,45.55
2017-09-29T05:16:09.800Z,44.86
2017-09-29T05:18:38.665Z,45.46
2017-09-29T05:21:06.050Z,45.74
2017-09-29T05:26:05.150Z,45.20
2017-09-29T05:28:32.522Z,44.65
2017-09-29T05:30:59.836Z,44.61
2017-09-29T05:33:27.230Z,44.66
2017-09-29T05:48:38.748Z,44.51
2017-09-29T05:51:06.168Z,44.33
2017-09-29T05:53:34.124Z,43.58
2017-09-29T05:58:33.020Z,43.85
2017-09-29T06:01:14.155Z,44.22
2017-09-29T06:03:44.125Z,43.21
2017-09-29T06:08:46.987Z,43.02
2017-09-29T06:11:14.293Z,43.25
2017-09-29T06:13:41.577Z,42.22
2017-09-29T06:16:09.469Z,42.68
2017-09-29T06:18:39.008Z,43.04
2017-09-29T06:21:10.241Z,42.77
2017-09-29T06:26:11.374Z,42.55
2017-09-29T06:31:13.049Z,41.85
2017-09-29T06:33:42.097Z,41.37
2017-09-29T06:36:09.358Z,41.24
2017-09-29T06:38:36.756Z,40.72
2017-09-29T06:41:04.004Z,40.86
2017-09-29T06:43:31.278Z,41.13
2017-09-29T06:45:59.049Z,40.95
2017-09-29T06:48:26.514Z,40.96
2017-09-29T06:50:54.633Z,41.10
2017-09-29T06:53:22.146Z,40.98
2017-09-29T07:01:35.723Z,40.60
2017-09-29T07:12:42.835Z,40.29
2017-09-29T07:23:37.565Z,40.04
2017-09-29T07:26:05.467Z,40.14
2017-09-29T07:34:15.765Z,39.59
2017-09-29T07:36:43.838Z,40.16
2017-09-29T07:54:51.920Z,38.96
2017-09-29T07:59:56.130Z,39.15
2017-09-29T09:07:21.915Z,37.08
2017-09-29T09:09:49.638Z,36.86
2017-09-29T09:23:41.758Z,37.12
2017-09-29T10:43:32.524Z,34.82
2017-09-29T10:46:04.060Z,34.86
2017-09-29T10:57:10.349Z,34.85
2017-09-29T10:59:39.899Z,35.54
2017-09-29T11:02:09.684Z,35.61
2017-09-29T11:07:09.949Z,35.71
2017-09-29T11:09:37.490Z,35.33
2017-09-29T11:12:05.386Z,35.05
2017-09-29T11:14:37.241Z,35.35
2017-09-29T11:17:04.565Z,35.39
2017-09-29T11:19:32.248Z,35.54
2017-09-29T11:21:59.538Z,35.69
2017-09-29T11:32:19.406Z,35.49
2017-09-29T11:34:50.557Z,35.34
2017-09-29T12:01:13.214Z,35.27
2017-09-29T12:03:40.947Z,35.41
2017-09-29T12:06:08.589Z,35.26
2017-09-29T12:08:40.421Z,35.77
2017-09-29T12:13:42.802Z,35.48
2017-09-29T12:23:55.841Z,35.38
2017-09-29T12:26:23.609Z,35.38
2017-09-29T12:28:53.053Z,35.17
2017-09-29T12:31:27.174Z,35.27
2017-09-29T12:33:55.081Z,35.25
2017-09-29T12:59:30.929Z,35.28
2017-09-29T13:01:59.217Z,35.46
2017-09-29T13:04:27.010Z,35.70
2017-09-29T13:06:58.974Z,35.42
2017-09-29T13:11:58.976Z,35.30
2017-09-29T13:19:30.008Z,35.47
2017-09-29T13:22:00.793Z,35.34
2017-09-29T13:24:28.196Z,35.21
2017-09-29T13:29:28.514Z,35.15
2017-09-29T13:34:31.764Z,35.20
2017-09-29T13:39:34.603Z,35.45
2017-09-29T13:49:42.561Z,35.32
2017-09-29T14:07:26.589Z,34.94
2017-09-29T14:09:53.906Z,34.97
2017-09-29T14:12:22.846Z,35.10
2017-09-29T14:22:33.741Z,34.84
2017-09-29T14:25:03.534Z,34.59
2017-09-29T14:27:32.779Z,34.83
2017-09-29T14:30:00.007Z,34.83
2017-09-29T14:32:28.042Z,34.83
2017-09-29T14:34:55.495Z,34.64
2017-09-29T14:37:23.656Z,34.68
2017-09-29T14:39:52.750Z,34.76
2017-09-29T14:42:26.701Z,34.73
2017-09-29T14:47:29.416Z,34.66
2017-09-29T14:49:57.003Z,34.68
2017-09-29T14:52:24.220Z,34.72
2017-09-29T14:54:51.435Z,34.81
2017-09-29T14:57:19.078Z,34.87
2017-09-29T14:59:48.918Z,34.94
2017-09-29T15:02:17.351Z,35.04
2017-09-29T15:04:44.550Z,35.02
2017-09-29T15:07:11.747Z,34.83
2017-09-29T15:09:39.274Z,35.00
2017-09-29T15:12:06.478Z,34.99
2017-09-29T15:14:34.251Z,34.95
2017-09-29T15:17:01.481Z,34.96
2017-09-29T15:19:28.880Z,35.08
2017-09-29T15:21:56.542Z,35.22
2017-09-29T15:24:23.787Z,35.16
2017-09-29T15:31:57.294Z,35.19
2017-09-29T15:34:24.510Z,35.09
2017-09-29T15:36:52.455Z,35.10
2017-09-29T15:39:19.754Z,35.20
2017-09-29T15:41:47.192Z,35.06
2017-09-29T15:44:14.410Z,35.09
2017-09-29T15:46:41.739Z,35.09
2017-09-29T15:49:08.915Z,35.15
2017-09-29T15:51:36.219Z,35.18
2017-09-29T15:54:03.491Z,35.22
2017-09-29T15:56:30.749Z,35.20
2017-09-29T15:58:58.091Z,35.24
2017-09-29T16:01:25.851Z,35.25
2017-09-29T16:03:53.159Z,35.32
2017-09-29T16:06:20.408Z,35.32
2017-09-29T16:08:47.618Z,35.37
2017-09-29T16:11:16.329Z,35.38
2017-09-29T16:13:43.552Z,35.44
2017-09-29T16:16:10.856Z,35.26
2017-09-29T16:18:38.393Z,35.51
2017-09-29T16:21:05.565Z,35.66
2017-09-29T16:23:32.749Z,35.50
2017-09-29T16:26:00.050Z,35.46
2017-09-29T16:28:27.278Z,35.62
2017-09-29T16:30:54.525Z,35.51
2017-09-29T16:33:21.715Z,35.55
2017-09-29T16:35:49.205Z,35.51
2017-09-29T16:38:16.506Z,35.71
2017-09-29T16:40:43.851Z,35.64
2017-09-29T16:43:11.269Z,35.89
2017-09-29T16:45:38.677Z,35.84
2017-09-29T16:48:05.855Z,35.70
2017-09-29T16:50:33.109Z,35.72
2017-09-29T16:53:05.739Z,35.86
2017-09-29T16:55:32.944Z,35.83
2017-09-29T16:58:00.226Z,35.86
2017-09-29T17:00:27.504Z,35.86
2017-09-29T17:02:54.731Z,35.89
2017-09-29T17:05:21.957Z,35.99
2017-09-29T17:07:49.154Z,36.20
2017-09-29T17:10:16.431Z,35.99
2017-09-29T17:12:43.844Z,36.00
2017-09-29T17:15:11.014Z,35.93
2017-09-29T17:17:38.257Z,36.18
2017-09-29T17:20:05.496Z,36.06
2017-09-29T17:25:04.236Z,35.90
2017-09-29T17:27:31.483Z,35.83
2017-09-29T17:29:58.728Z,35.81
2017-09-29T17:32:25.950Z,35.92
2017-09-29T17:34:53.146Z,35.80
2017-09-29T17:37:20.385Z,35.76
2017-09-29T17:39:47.604Z,35.75
2017-09-29T17:42:14.922Z,35.79
2017-09-29T17:44:42.178Z,35.79
2017-09-29T17:47:09.519Z,35.91
2017-09-29T17:49:36.818Z,35.96
2017-09-29T17:52:04.086Z,35.79
2017-09-29T17:54:31.374Z,35.83
2017-09-29T17:56:58.687Z,35.80
2017-09-29T17:59:25.893Z,35.88
2017-09-29T18:01:53.150Z,35.86
2017-09-29T18:04:20.404Z,35.85
2017-09-29T18:06:47.638Z,35.86
2017-09-29T18:09:14.866Z,35.92
2017-09-29T18:11:42.066Z,35.88
2017-09-29T18:14:09.588Z,35.89
2017-09-29T18:16:36.844Z,35.97
2017-09-29T18:19:04.328Z,35.94
2017-09-29T18:21:31.854Z,35.97
2017-09-29T18:23:59.120Z,35.98
2017-09-29T18:26:27.250Z,35.98
2017-09-29T18:28:55.174Z,36.03
2017-09-29T18:31:22.499Z,36.04
2017-09-29T18:33:49.708Z,36.09
2017-09-29T18:36:19.668Z,36.17
2017-09-29T18:38:46.918Z,36.16
2017-09-29T18:41:14.108Z,36.22
2017-09-29T18:43:41.330Z,36.21
2017-09-29T18:46:13.938Z,36.24
2017-09-29T18:48:41.254Z,36.31
2017-09-29T18:51:08.481Z,36.32
2017-09-29T18:53:35.662Z,36.41
2017-09-29T18:56:02.945Z,36.46
2017-09-29T18:58:30.329Z,36.63
2017-09-29T19:00:57.570Z,36.51
2017-09-29T19:03:24.848Z,36.58
2017-09-29T19:05:52.061Z,36.56
2017-09-29T19:08:19.244Z,36.59
2017-09-29T19:10:46.455Z,36.63
2017-09-29T19:13:13.631Z,36.60
2017-09-29T19:15:40.823Z,36.70
2017-09-29T19:18:08.321Z,36.73
2017-09-29T19:20:35.508Z,36.78
2017-09-29T19:23:02.723Z,36.79
2017-09-29T19:25:29.938Z,36.83
2017-09-29T19:27:57.148Z,36.86
2017-09-29T19:30:24.318Z,36.87
2017-09-29T19:32:51.642Z,36.91
2017-09-29T19:35:18.934Z,36.99
2017-09-29T19:37:46.254Z,37.00
2017-09-29T19:40:13.541Z,37.02
2017-09-29T19:42:40.944Z,37.04
2017-09-29T19:45:08.244Z,37.13
2017-09-29T19:47:42.973Z,37.13
2017-09-29T19:50:10.197Z,37.15
2017-09-29T19:52:39.252Z,37.22
2017-09-29T19:55:06.453Z,37.24
2017-09-29T19:57:33.628Z,37.26
2017-09-29T20:00:00.927Z,37.46
2017-09-29T20:02:28.187Z,37.35
2017-09-29T20:04:55.417Z,37.41
2017-09-29T20:07:22.713Z,37.55
2017-09-29T20:09:49.937Z,37.70
2017-09-29T20:12:17.203Z,37.82
2017-09-29T20:14:44.455Z,37.95
2017-09-29T20:17:11.622Z,38.01
2017-09-29T20:19:38.770Z,38.14
2017-09-29T20:22:06.052Z,38.27
2017-09-29T20:24:33.307Z,38.36
2017-09-29T20:27:00.822Z,38.43
2017-09-29T20:29:27.993Z,38.47
2017-09-29T20:31:55.193Z,38.62
2017-09-29T20:34:22.508Z,38.69
2017-09-29T20:36:49.727Z,38.86
2017-09-29T20:39:16.917Z,38.83
2017-09-29T20:41:44.129Z,38.93
2017-09-29T20:44:11.471Z,38.94
2017-09-29T20:46:38.754Z,39.00
2017-09-29T20:49:06.160Z,39.00
2017-09-29T20:51:33.337Z,38.96
2017-09-29T20:54:00.819Z,38.98
2017-09-29T20:56:27.978Z,39.07
2017-09-29T20:58:55.211Z,39.14
2017-09-29T21:01:22.466Z,39.27
2017-09-29T21:03:49.690Z,39.40
2017-09-29T21:06:16.936Z,39.40
2017-09-29T21:08:44.149Z,39.58
2017-09-29T21:11:11.339Z,39.51
2017-09-29T21:13:38.572Z,39.66
2017-09-29T21:16:05.814Z,39.76
2017-09-29T21:18:33.062Z,39.78
2017-09-29T21:21:00.376Z,39.90
2017-09-29T21:23:27.552Z,39.88
2017-09-29T21:25:54.894Z,40.08
2017-09-29T21:28:22.129Z,40.05
2017-09-29T21:30:49.392Z,40.09
2017-09-29T21:33:16.642Z,40.12
2017-09-29T21:35:43.939Z,40.23
2017-09-29T21:38:11.091Z,40.25
2017-09-29T21:40:38.374Z,40.28
2017-09-29T21:43:05.597Z,40.38
2017-09-29T21:45:32.840Z,40.43
2017-09-29T21:48:00.026Z,40.46
2017-09-29T21:50:32.121Z,40.57
2017-09-29T21:52:59.370Z,40.57
2017-09-29T21:55:26.622Z,40.60
2017-09-29T21:57:54.023Z,40.72
2017-09-29T22:00:21.245Z,40.81
2017-09-29T22:02:48.455Z,40.79
2017-09-29T22:05:15.697Z,40.85
2017-09-29T22:07:42.962Z,40.91
2017-09-29T22:10:10.198Z,40.91
2017-09-29T22:12:37.397Z,41.03
2017-09-29T22:15:04.636Z,41.14
2017-09-29T22:17:31.862Z,41.01
2017-09-29T22:19:59.054Z,41.19
2017-09-29T22:22:26.359Z,41.13
2017-09-29T22:24:53.616Z,41.14
2017-09-29T22:27:20.821Z,41.20
2017-09-29T22:29:48.059Z,41.32
2017-09-29T22:32:15.230Z,41.28
2017-09-29T22:34:42.464Z,41.23
2017-09-29T22:37:09.672Z,41.31
2017-09-29T22:39:36.937Z,41.32
2017-09-29T22:42:04.178Z,41.40
2017-09-29T22:44:31.385Z,41.44
2017-09-29T22:46:58.605Z,41.43
2017-09-29T22:49:25.875Z,41.47
2017-09-29T22:51:53.111Z,41.45
2017-09-29T22:54:20.432Z,41.58
2017-09-29T22:56:47.607Z,41.55
2017-09-29T22:59:14.894Z,41.54
2017-09-29T23:01:42.121Z,41.56
2017-09-29T23:04:09.491Z,41.68
2017-09-29T23:06:36.859Z,41.54
2017-09-29T23:09:07.531Z,41.65
2017-09-29T23:11:34.836Z,41.68
2017-09-29T23:14:02.056Z,41.68
2017-09-29T23:16:29.266Z,41.73
2017-09-29T23:18:56.479Z,41.65
2017-09-29T23:21:23.826Z,41.63
2017-09-29T23:23:51.050Z,41.67
2017-09-29T23:26:18.227Z,41.80
2017-09-29T23:28:45.576Z,41.74
2017-09-29T23:31:12.767Z,41.71
2017-09-29T23:33:40.027Z,41.75
2017-09-29T23:36:07.362Z,41.71
2017-09-29T23:38:34.601Z,41.82
2017-09-29T23:41:08.190Z,41.91
2017-09-29T23:43:35.496Z,41.81
2017-09-29T23:46:02.695Z,41.86
2017-09-29T23:48:29.952Z,41.77
2017-09-29T23:50:57.139Z,41.83
2017-09-29T23:53:24.336Z,41.91
2017-09-29T23:55:51.602Z,41.95
2017-09-29T23:58:18.830Z,41.87
